Time;durP1;ratioP1;P1;durP2;ratioP2;P2;SDS_P1;SDS_P2;PMS_P1;PMS_P2;Temp;Humidity;BMP_temperature;BMP_pressure;BME280_temperature;BME280_humidity;BME280_pressure;Samples;Min_cycle;Max_cycle;Signal;HPM_P1;HPM_P2
2023/01/05 00:06:31;;;;;;;5.15;1.80;;;;;;;16.23;75.07;100861.75;20251597;29;20124;-94
2023/01/05 00:26:53;;;;;;;4.95;1.80;;;;;;;16.22;75.07;100868.13;20250347;29;20049;-96
2023/01/05 00:36:54;;;;;;;5.80;2.10;;;;;;;16.23;74.93;100883.25;20247761;29;20084;-94
2023/01/05 00:46:56;;;;;;;4.55;1.60;;;;;;;16.09;75.00;100858.38;20223859;29;20097;-94
2023/01/05 00:56:57;;;;;;;7.18;2.05;;;;;;;16.22;74.83;100882.41;20248171;29;20478;-94
2023/01/05 01:07:00;;;;;;;7.63;2.15;;;;;;;16.22;74.72;100882.41;20246902;29;20505;-94
2023/01/05 01:17:01;;;;;;;6.10;1.80;;;;;;;15.90;74.60;100834.88;20244306;29;20103;-95
2023/01/05 01:27:03;;;;;;;7.40;1.95;;;;;;;16.22;74.38;100906.59;20259481;29;20147;-95
2023/01/05 01:37:04;;;;;;;5.47;2.20;;;;;;;16.23;74.17;100920.84;20243446;29;20135;-95
2023/01/05 01:47:45;;;;;;;5.03;1.85;;;;;;;16.21;74.10;100922.81;20250071;29;20079;-94
2023/01/05 01:57:47;;;;;;;4.97;1.63;;;;;;;16.21;74.02;100938.94;20241776;29;20049;-95
2023/01/05 02:07:49;;;;;;;5.88;1.40;;;;;;;16.20;73.73;100959.59;20257343;29;20111;-94
2023/01/05 02:17:58;;;;;;;5.20;1.50;;;;;;;16.20;73.66;100959.59;20240077;29;20510;-94
2023/01/05 02:28:34;;;;;;;5.55;1.63;;;;;;;16.12;73.39;100940.53;20240648;29;20195;-94
2023/01/05 02:38:48;;;;;;;3.47;1.65;;;;;;;16.21;73.39;100965.78;20240357;29;20579;-96
2023/01/05 02:48:52;;;;;;;5.97;1.65;;;;;;;16.13;73.00;100952.13;20198291;29;20114;-94
2023/01/05 02:58:57;;;;;;;7.68;1.75;;;;;;;16.19;73.13;100974.00;20145394;29;20548;-95
2023/01/05 03:09:02;;;;;;;4.32;1.67;;;;;;;16.18;73.13;100983.03;20145038;29;20534;-94
2023/01/05 03:39:52;;;;;;;6.45;1.88;;;;;;;16.15;72.85;100999.41;20174245;29;20061;-86
2023/01/05 03:49:55;;;;;;;9.55;2.22;;;;;;;16.17;72.86;101010.00;20180393;29;20494;-92
2023/01/05 03:59:56;;;;;;;5.10;1.85;;;;;;;16.18;72.81;100999.16;20189127;29;20506;-84
2023/01/05 04:10:00;;;;;;;7.22;2.00;;;;;;;16.16;72.69;101014.53;20188401;29;20060;-93
2023/01/05 04:20:04;;;;;;;5.10;1.58;;;;;;;15.90;72.59;100995.09;20172508;29;20057;-96
2023/01/05 04:30:08;;;;;;;7.27;1.60;;;;;;;15.75;72.56;100952.34;20186899;29;20558;-94
2023/01/05 06:05:00;;;;;;;17.38;7.88;;;;;;;16.35;77.01;101128.56;20711009;28;20421;-89
2023/01/05 06:15:02;;;;;;;18.02;9.10;;;;;;;16.33;77.33;101138.59;20760794;28;20412;-93
2023/01/05 06:25:04;;;;;;;18.13;7.50;;;;;;;16.49;77.32;101157.06;20726790;28;20049;-93
2023/01/05 06:35:06;;;;;;;18.08;7.97;;;;;;;16.62;77.00;101179.28;20712233;28;20050;-95
2023/01/05 06:45:09;;;;;;;16.52;7.18;;;;;;;16.67;76.53;101182.47;20708524;28;20042;-94
2023/01/05 06:55:11;;;;;;;16.75;7.63;;;;;;;16.72;76.11;101200.94;20698988;28;20519;-94
2023/01/05 07:05:13;;;;;;;12.60;6.32;;;;;;;16.68;75.75;101197.63;20646824;28;20050;-94
2023/01/05 07:15:14;;;;;;;14.73;6.45;;;;;;;16.79;75.37;101212.03;20648167;28;20081;-93
2023/01/05 07:25:16;;;;;;;10.88;5.43;;;;;;;16.81;75.21;101220.88;20589397;28;20704;-96
2023/01/05 07:35:17;;;;;;;10.23;4.68;;;;;;;16.82;74.67;101230.66;20661770;28;20042;-96
2023/01/05 07:55:57;;;;;;;11.38;5.13;;;;;;;16.86;74.18;101256.31;23261335;23;20112;-95
2023/01/05 08:06:10;;;;;;;9.77;4.20;;;;;;;16.87;74.00;101279.53;20304151;29;20335;-93
2023/01/05 08:16:11;;;;;;;10.13;4.07;;;;;;;16.82;73.12;101297.88;20274125;29;20107;-95
2023/01/05 08:26:15;;;;;;;9.32;3.50;;;;;;;16.73;73.12;101314.69;20298353;29;20455;-93
2023/01/05 08:36:21;;;;;;;6.65;3.10;;;;;;;16.63;73.44;101323.47;20319116;29;20058;-90
2023/01/05 08:46:24;;;;;;;9.35;3.22;;;;;;;16.58;73.90;101349.00;20278659;29;20103;-92
2023/01/05 08:56:26;;;;;;;8.98;3.10;;;;;;;16.58;78.95;101349.84;20285590;29;20084;-94
2023/01/05 09:06:35;;;;;;;13.40;3.78;;;;;;;16.62;80.41;101374.69;20287531;29;20055;-94
2023/01/05 09:16:36;;;;;;;14.93;3.10;;;;;;;16.23;79.37;101323.81;20281845;29;20135;-87
2023/01/05 09:26:58;;;;;;;10.05;3.10;;;;;;;16.76;78.15;101409.44;20274775;29;20051;-94
2023/01/05 09:36:59;;;;;;;7.63;3.10;;;;;;;16.73;76.69;101433.88;20278616;29;20524;-95
2023/01/05 09:47:04;;;;;;;8.15;2.78;;;;;;;16.68;76.18;101433.38;20305395;29;20539;-93
2023/01/05 09:57:12;;;;;;;10.05;3.40;;;;;;;16.61;75.84;101457.16;20291118;29;20117;-87
2023/01/05 10:07:28;;;;;;;11.55;2.95;;;;;;;16.57;75.58;101463.72;20275637;29;20052;-88
2023/01/05 10:17:33;;;;;;;8.68;2.85;;;;;;;16.47;75.22;101450.09;20273047;29;20829;-88
2023/01/05 10:27:48;;;;;;;9.65;2.50;;;;;;;16.43;74.98;101464.75;20274094;29;20060;-88
2023/01/05 10:38:09;;;;;;;6.55;2.30;;;;;;;16.25;74.87;101448.13;20287099;29;20106;-87
2023/01/05 10:48:13;;;;;;;7.10;2.03;;;;;;;16.45;74.49;101483.44;20292180;29;20143;-88
2023/01/05 10:58:23;;;;;;;6.82;2.20;;;;;;;16.33;74.18;101483.34;20298169;29;20060;-89
2023/01/05 11:08:28;;;;;;;8.65;2.10;;;;;;;16.50;76.04;101497.41;20276235;29;20075;-92
2023/01/05 11:19:10;;;;;;;9.83;3.03;;;;;;;16.62;76.74;101499.19;20312027;29;20066;-93
2023/01/05 11:29:14;;;;;;;4.80;1.80;;;;;;;16.68;77.55;101496.03;20266041;29;20179;-95
2023/01/05 11:39:20;;;;;;;6.10;1.95;;;;;;;16.61;77.67;101494.78;20293798;29;20139;-94
2023/01/05 11:49:22;;;;;;;5.03;1.80;;;;;;;16.75;77.40;101503.66;20296267;29;20107;-94
2023/01/05 11:59:28;;;;;;;5.22;2.40;;;;;;;16.76;77.09;101508.03;20247979;29;20050;-94
2023/01/05 12:09:32;;;;;;;5.78;1.85;;;;;;;16.70;76.82;101503.13;20244450;29;20419;-92
2023/01/05 12:19:48;;;;;;;5.22;1.67;;;;;;;16.79;76.69;101510.50;20239107;29;20060;-92
2023/01/05 12:30:11;;;;;;;5.43;1.60;;;;;;;16.80;76.52;101514.94;20258889;29;20052;-92
2023/01/05 12:40:54;;;;;;;4.57;1.58;;;;;;;16.81;76.68;101516.66;20250476;29;20056;-92
2023/01/05 12:51:20;;;;;;;3.92;1.50;;;;;;;16.82;76.18;101521.06;20262982;29;20151;-93
2023/01/05 13:01:24;;;;;;;5.50;1.83;;;;;;;16.86;75.69;101541.38;20251459;29;20134;-90
2023/01/05 13:11:30;;;;;;;2.43;1.63;;;;;;;16.99;75.24;101545.88;20259239;29;20118;-93
2023/01/05 13:21:32;;;;;;;5.65;1.75;;;;;;;17.04;74.26;101549.06;20272581;29;20048;-93
2023/01/05 13:32:00;;;;;;;4.60;1.50;;;;;;;16.96;73.68;101557.66;20257241;29;20052;-90
2023/01/05 13:42:26;;;;;;;4.50;2.13;;;;;;;16.91;73.65;101552.66;20247315;29;20143;-90
2023/01/05 13:52:41;;;;;;;4.88;1.40;;;;;;;16.84;73.59;101562.16;20242345;29;20056;-89
2023/01/05 14:02:44;;;;;;;5.57;1.80;;;;;;;16.72;73.56;101553.13;20227491;29;20101;-90
2023/01/05 14:12:48;;;;;;;4.35;1.52;;;;;;;16.76;73.66;101561.81;20243855;29;20132;-90
2023/01/05 14:22:50;;;;;;;5.78;1.35;;;;;;;16.56;73.68;101536.41;20247510;29;20147;-90
2023/01/05 14:32:52;;;;;;;4.05;1.38;;;;;;;16.71;73.72;101559.50;20252090;29;20044;-90
2023/01/05 14:42:54;;;;;;;5.07;1.63;;;;;;;16.70;73.71;101563.16;20287924;29;21642;-94
2023/01/05 14:53:01;;;;;;;5.18;1.88;;;;;;;16.68;73.81;101552.50;20287690;29;20052;-92
2023/01/05 15:03:23;;;;;;;6.60;1.70;;;;;;;15.95;73.53;101452.94;20268553;29;20177;-90
2023/01/05 15:13:41;;;;;;;4.45;1.48;;;;;;;16.67;73.52;101588.41;20265786;29;20060;-89
2023/01/05 15:24:18;;;;;;;5.05;1.70;;;;;;;16.51;73.53;101569.84;20284794;29;20194;-90
2023/01/05 15:34:25;;;;;;;4.38;1.60;;;;;;;16.64;73.49;101583.25;20256596;29;20083;-89
2023/01/05 15:44:31;;;;;;;7.22;2.10;;;;;;;16.63;73.31;101589.63;20249433;29;20079;-89
2023/01/05 15:54:33;;;;;;;4.32;1.50;;;;;;;16.65;73.66;101584.13;20243752;29;20494;-87
2023/01/05 16:04:35;;;;;;;5.47;1.77;;;;;;;16.65;74.47;101576.06;20265190;29;20433;-90
2023/01/05 16:14:43;;;;;;;4.90;1.80;;;;;;;16.52;75.89;101533.09;20253213;29;20136;-92
2023/01/05 16:25:00;;;;;;;5.95;1.77;;;;;;;16.91;75.66;101582.22;20283526;29;20056;-82
2023/01/05 16:35:33;;;;;;;5.95;2.05;;;;;;;16.84;74.38;101564.84;20303627;29;20115;-84
2023/01/05 16:45:35;;;;;;;6.43;2.13;;;;;;;16.71;73.77;101539.78;20305371;29;20135;-84
2023/01/05 16:55:37;;;;;;;3.65;1.30;;;;;;;16.76;73.40;101567.19;20295275;29;20048;-87
2023/01/05 17:05:39;;;;;;;6.03;1.70;;;;;;;16.72;73.60;101552.25;20295900;29;20055;-85
2023/01/05 17:15:43;;;;;;;4.55;1.45;;;;;;;16.65;73.45;101550.03;20305227;29;20071;-84
2023/01/05 17:25:44;;;;;;;7.43;2.05;;;;;;;16.55;73.61;101538.25;20258579;29;20052;-86
2023/01/05 17:35:47;;;;;;;5.15;1.80;;;;;;;16.40;74.05;101507.13;20302802;29;20051;-86
2023/01/05 17:45:53;;;;;;;6.22;2.03;;;;;;;16.62;74.29;101523.38;20262754;29;20054;-86
2023/01/05 17:55:55;;;;;;;6.38;2.00;;;;;;;16.64;74.33;101515.22;20257361;29;20139;-85
2023/01/05 18:05:59;;;;;;;4.47;1.60;;;;;;;16.50;74.10;101494.72;20266173;29;20083;-83
2023/01/05 18:16:08;;;;;;;6.97;2.05;;;;;;;16.55;74.53;101506.00;20281627;29;20053;-83
2023/01/05 18:26:09;;;;;;;5.25;1.40;;;;;;;16.64;74.39;101504.47;20293395;29;20052;-85
2023/01/05 18:36:13;;;;;;;6.72;1.80;;;;;;;16.49;74.65;101466.97;20256490;29;20060;-88
2023/01/05 18:46:14;;;;;;;5.38;1.88;;;;;;;16.63;74.36;101487.47;20287788;29;20110;-86
2023/01/05 18:56:16;;;;;;;7.07;2.03;;;;;;;16.60;74.11;101482.31;20316460;29;20119;-86
2023/01/05 19:06:21;;;;;;;5.07;2.35;;;;;;;16.58;74.05;101475.34;20292355;29;20055;-86
2023/01/05 19:16:24;;;;;;;6.30;1.73;;;;;;;16.55;74.00;101465.66;20306935;29;20055;-86
2023/01/05 19:26:35;;;;;;;5.93;2.17;;;;;;;16.44;74.17;101444.13;20321536;29;20060;-86
2023/01/05 19:36:37;;;;;;;6.00;2.47;;;;;;;16.51;74.05;101456.13;20290880;29;20052;-86
2023/01/05 19:46:39;;;;;;;6.35;2.17;;;;;;;16.47;74.37;101438.50;20288901;29;20056;-86
2023/01/05 19:56:42;;;;;;;5.68;1.95;;;;;;;16.48;74.08;101427.63;20321537;29;20062;-85
2023/01/05 20:06:44;;;;;;;5.30;2.00;;;;;;;16.48;74.29;101427.63;20287410;29;20059;-86
2023/01/05 20:16:50;;;;;;;5.95;2.38;;;;;;;16.33;74.21;101401.91;20318972;29;20059;-86
2023/01/05 20:26:57;;;;;;;4.80;2.30;;;;;;;16.21;74.00;101374.97;20318801;29;20134;-86
2023/01/05 20:37:00;;;;;;;4.95;2.40;;;;;;;16.46;74.18;101409.91;20300480;29;20076;-86
2023/01/05 20:47:02;;;;;;;4.63;2.67;;;;;;;16.45;74.31;101397.44;20316812;29;20062;-86
2023/01/05 20:57:04;;;;;;;6.10;2.95;;;;;;;16.46;74.06;101393.78;20299488;29;20099;-85
2023/01/05 21:07:06;;;;;;;4.82;2.47;;;;;;;16.45;74.22;101392.06;20298719;29;20048;-86
2023/01/05 21:17:07;;;;;;;5.57;2.40;;;;;;;15.78;74.25;101282.28;20314083;29;20071;-86
2023/01/05 21:27:09;;;;;;;5.40;2.72;;;;;;;16.03;74.40;101323.47;20297469;29;20498;-86
2023/01/05 21:37:11;;;;;;;6.50;2.70;;;;;;;16.42;74.33;101382.41;20313598;29;20582;-86
2023/01/05 21:47:12;;;;;;;5.10;2.80;;;;;;;16.43;74.49;101389.50;20313166;29;20048;-86
2023/01/05 21:57:14;;;;;;;5.28;2.80;;;;;;;16.43;74.48;101377.91;20312830;29;20483;-86
2023/01/05 22:07:15;;;;;;;4.47;2.67;;;;;;;16.34;74.33;101348.03;20295808;29;20499;-85
2023/01/05 22:17:17;;;;;;;6.00;3.10;;;;;;;16.42;74.47;101339.41;20294593;29;20052;-85
2023/01/05 22:27:18;;;;;;;5.53;2.85;;;;;;;16.42;74.56;101343.94;20296022;29;20056;-86
2023/01/05 22:37:20;;;;;;;4.50;2.53;;;;;;;16.13;74.66;101277.13;20310836;29;20055;-86
2023/01/05 22:47:23;;;;;;;5.03;2.80;;;;;;;16.41;75.05;101326.09;20326175;29;20063;-87
2023/01/05 22:57:25;;;;;;;4.70;2.80;;;;;;;16.41;74.69;101320.72;20325479;29;20068;-87
2023/01/05 23:07:26;;;;;;;3.88;2.25;;;;;;;16.30;74.67;101298.19;20324617;29;20091;-86
2023/01/05 23:17:28;;;;;;;4.28;2.65;;;;;;;16.33;74.75;101286.38;20323036;29;20103;-86
2023/01/05 23:27:29;;;;;;;5.00;2.97;;;;;;;16.41;74.71;101288.47;20323084;29;20064;-86
2023/01/05 23:37:31;;;;;;;4.22;2.75;;;;;;;16.40;74.84;101278.72;20322615;29;20139;-86
2023/01/05 23:47:32;;;;;;;4.20;2.45;;;;;;;16.33;74.88;101257.66;20304731;29;20066;-86
2023/01/05 23:57:34;;;;;;;4.13;2.50;;;;;;;16.35;74.84;101261.09;20303810;29;20052;-86
